Time;durP1;ratioP1;P1;durP2;ratioP2;P2;SDS_P1;SDS_P2;PMS_P1;PMS_P2;Temp;Humidity;BMP_temperature;BMP_pressure;BME280_temperature;BME280_humidity;BME280_pressure;Samples;Min_cycle;Max_cycle;Signal;HPM_P1;HPM_P2
2022/03/09 00:00:40;;;;;;;;;;;15.60;38.00;;;;;;5045501;28;42993;-77
2022/03/09 00:03:06;;;;;;;;;;;15.60;38.00;;;;;;5045581;28;42828;-76
2022/03/09 00:05:31;;;;;;;;;;;15.60;37.20;;;;;;5045354;28;43756;-76
2022/03/09 00:07:57;;;;;;;;;;;15.60;37.90;;;;;;5045273;28;42756;-76
2022/03/09 00:10:25;;;;;;;;;;;15.60;37.30;;;;;;5044938;28;42836;-76
2022/03/09 00:12:52;;;;;;;;;;;15.60;37.30;;;;;;5044830;28;42974;-76
2022/03/09 00:15:17;;;;;;;;;;;15.60;37.30;;;;;;5044943;28;43355;-77
2022/03/09 00:17:43;;;;;;;;;;;15.60;37.30;;;;;;5044272;28;42899;-75
2022/03/09 00:20:08;;;;;;;;;;;15.60;38.00;;;;;;5045322;28;42892;-76
2022/03/09 00:22:38;;;;;;;;;;;15.60;38.10;;;;;;5045330;28;42830;-76
2022/03/09 00:25:03;;;;;;;;;;;15.60;37.90;;;;;;5043312;28;44376;-76
2022/03/09 00:27:31;;;;;;;;;;;15.60;38.00;;;;;;5044753;28;42925;-76
2022/03/09 00:29:56;;;;;;;;;;;15.60;38.00;;;;;;5044972;28;43222;-76
2022/03/09 00:32:22;;;;;;;;;;;15.60;38.10;;;;;;5044701;28;42885;-76
2022/03/09 00:34:47;;;;;;;;;;;15.60;38.20;;;;;;5044800;28;43133;-76
2022/03/09 00:37:13;;;;;;;;;;;15.60;37.40;;;;;;5045279;28;42963;-76
2022/03/09 00:39:38;;;;;;;;;;;15.60;38.10;;;;;;5044655;28;42840;-77
2022/03/09 00:42:04;;;;;;;;;;;15.60;38.00;;;;;;5044610;28;43023;-76
2022/03/09 00:44:30;;;;;;;;;;;15.60;38.10;;;;;;5044832;28;42962;-75
2022/03/09 00:46:56;;;;;;;;;;;15.60;38.00;;;;;;5044985;28;43333;-75
2022/03/09 00:49:22;;;;;;;;;;;15.60;37.40;;;;;;5044632;28;44611;-75
2022/03/09 00:51:47;;;;;;;;;;;15.60;38.30;;;;;;5045554;28;42959;-75
2022/03/09 00:54:13;;;;;;;;;;;15.60;38.00;;;;;;5045004;28;43627;-75
2022/03/09 00:56:38;;;;;;;;;;;15.60;38.00;;;;;;5044331;28;42929;-75
2022/03/09 00:59:04;;;;;;;;;;;15.60;38.00;;;;;;5044006;28;43061;-74
2022/03/09 01:01:30;;;;;;;;;;;15.60;38.20;;;;;;5044046;28;43053;-75
2022/03/09 01:03:55;;;;;;;;;;;15.70;38.20;;;;;;5047163;28;43413;-75
2022/03/09 01:06:21;;;;;;;;;;;15.60;37.60;;;;;;5046936;28;42922;-75
2022/03/09 01:08:46;;;;;;;;;;;15.60;37.60;;;;;;5048068;28;43421;-74
2022/03/09 01:11:12;;;;;;;;;;;15.60;38.10;;;;;;5048542;28;42986;-74
2022/03/09 01:13:37;;;;;;;;;;;15.60;37.60;;;;;;5047706;28;43861;-74
2022/03/09 01:16:03;;;;;;;;;;;15.60;37.60;;;;;;5047955;28;42987;-75
2022/03/09 01:18:29;;;;;;;;;;;15.60;37.60;;;;;;5047716;28;43805;-75
2022/03/09 01:20:54;;;;;;;;;;;15.60;38.40;;;;;;5047570;28;43043;-75
2022/03/09 01:23:20;;;;;;;;;;;15.60;38.30;;;;;;5046956;28;42831;-75
2022/03/09 01:25:45;;;;;;;;;;;15.60;38.20;;;;;;5047937;28;42802;-74
2022/03/09 01:28:11;;;;;;;;;;;15.60;38.50;;;;;;5047557;28;42855;-75
2022/03/09 01:30:36;;;;;;;;;;;15.60;37.70;;;;;;5047329;28;42856;-75
2022/03/09 01:33:02;;;;;;;;;;;15.60;37.70;;;;;;5047435;28;43063;-76
2022/03/09 01:35:28;;;;;;;;;;;15.60;38.40;;;;;;5047638;28;42980;-76
2022/03/09 01:37:53;;;;;;;;;;;15.60;37.70;;;;;;5047222;28;43921;-76
2022/03/09 01:40:19;;;;;;;;;;;15.60;37.80;;;;;;5046210;28;42979;-75
2022/03/09 01:42:44;;;;;;;;;;;15.60;37.80;;;;;;5047688;28;43656;-76
2022/03/09 01:45:11;;;;;;;;;;;15.60;38.40;;;;;;5047907;28;42918;-75
2022/03/09 01:47:37;;;;;;;;;;;15.60;37.80;;;;;;5047374;28;43088;-76
2022/03/09 01:50:03;;;;;;;;;;;15.60;37.90;;;;;;5046752;28;43045;-76
2022/03/09 01:52:29;;;;;;;;;;;15.60;38.40;;;;;;5046548;28;44798;-76
2022/03/09 01:54:55;;;;;;;;;;;15.60;38.40;;;;;;5046960;28;42949;-75
2022/03/09 01:57:21;;;;;;;;;;;15.60;38.00;;;;;;5046449;28;44078;-75
2022/03/09 01:59:47;;;;;;;;;;;15.60;38.60;;;;;;5046412;28;43097;-76
2022/03/09 02:02:12;;;;;;;;;;;15.60;38.40;;;;;;5047334;28;43056;-76
2022/03/09 02:04:38;;;;;;;;;;;15.60;38.60;;;;;;5046704;28;42950;-76
2022/03/09 02:07:06;;;;;;;;;;;15.60;38.60;;;;;;5046469;28;43223;-76
2022/03/09 02:09:41;;;;;;;;;;;15.70;38.50;;;;;;5045305;28;43148;-75
2022/03/09 02:12:08;;;;;;;;;;;15.60;38.60;;;;;;5040511;28;43550;-81
2022/03/09 02:14:41;;;;;;;;;;;15.60;38.50;;;;;;5035356;28;43000;-78
2022/03/09 02:17:10;;;;;;;;;;;15.60;38.70;;;;;;5046463;28;43712;-78
2022/03/09 02:19:36;;;;;;;;;;;15.60;38.80;;;;;;5046724;28;42900;-80
2022/03/09 02:22:25;;;;;;;;;;;15.60;38.60;;;;;;5045619;28;43966;-76
2022/03/09 02:24:51;;;;;;;;;;;15.60;38.80;;;;;;5038924;28;43010;-77
2022/03/09 02:27:17;;;;;;;;;;;15.60;38.90;;;;;;5044532;28;43676;-77
2022/03/09 02:29:42;;;;;;;;;;;15.60;38.90;;;;;;5045585;28;42978;-77
2022/03/09 02:32:08;;;;;;;;;;;15.60;39.00;;;;;;5044002;28;43464;-77
2022/03/09 02:34:34;;;;;;;;;;;15.60;39.00;;;;;;5045947;28;43051;-77
2022/03/09 02:37:00;;;;;;;;;;;15.60;39.60;;;;;;5045434;28;42959;-77
2022/03/09 02:39:25;;;;;;;;;;;15.60;38.60;;;;;;5045415;28;43004;-76
2022/03/09 02:41:51;;;;;;;;;;;15.60;39.00;;;;;;5043910;28;43610;-77
2022/03/09 02:44:16;;;;;;;;;;;15.60;39.10;;;;;;5046002;28;43096;-77
2022/03/09 02:46:42;;;;;;;;;;;15.60;39.10;;;;;;5045844;28;44434;-76
2022/03/09 02:49:08;;;;;;;;;;;15.60;39.20;;;;;;5045435;28;42930;-78
2022/03/09 02:51:33;;;;;;;;;;;15.60;39.10;;;;;;5045726;28;43517;-78
2022/03/09 02:53:59;;;;;;;;;;;15.60;38.50;;;;;;5045109;28;42994;-76
2022/03/09 02:56:25;;;;;;;;;;;15.60;39.20;;;;;;5045630;28;43001;-77
2022/03/09 02:58:50;;;;;;;;;;;15.60;38.60;;;;;;5044551;28;43029;-78
2022/03/09 03:01:16;;;;;;;;;;;15.60;39.20;;;;;;5045109;28;42967;-76
2022/03/09 03:03:42;;;;;;;;;;;15.60;39.10;;;;;;5043744;28;42933;-76
2022/03/09 03:06:08;;;;;;;;;;;15.60;39.10;;;;;;5043976;28;43420;-78
2022/03/09 03:08:33;;;;;;;;;;;15.60;39.00;;;;;;5045554;28;43059;-78
2022/03/09 03:11:00;;;;;;;;;;;15.60;39.10;;;;;;5045732;28;43646;-78
2022/03/09 03:13:25;;;;;;;;;;;15.60;39.00;;;;;;5045021;28;42848;-78
2022/03/09 03:15:51;;;;;;;;;;;15.60;39.10;;;;;;5045550;28;42903;-79
2022/03/09 03:18:16;;;;;;;;;;;15.60;39.20;;;;;;5045369;28;43007;-78
2022/03/09 03:20:42;;;;;;;;;;;15.60;39.20;;;;;;5045075;28;43797;-77
2022/03/09 03:23:07;;;;;;;;;;;15.60;39.10;;;;;;5045415;28;43059;-80
2022/03/09 03:25:33;;;;;;;;;;;15.60;39.20;;;;;;5042033;28;43601;-77
2022/03/09 03:27:58;;;;;;;;;;;15.60;39.30;;;;;;5044975;28;43067;-77
2022/03/09 03:30:24;;;;;;;;;;;15.60;39.20;;;;;;5044395;28;42950;-77
2022/03/09 03:32:49;;;;;;;;;;;15.60;39.20;;;;;;5044640;28;42900;-76
2022/03/09 03:35:15;;;;;;;;;;;15.60;39.30;;;;;;5045153;28;42983;-76
2022/03/09 03:37:40;;;;;;;;;;;15.60;38.70;;;;;;5044594;28;42993;-76
2022/03/09 03:40:06;;;;;;;;;;;15.60;39.30;;;;;;5044502;28;43405;-75
2022/03/09 03:42:32;;;;;;;;;;;15.60;39.20;;;;;;5045138;28;42897;-78
2022/03/09 03:44:57;;;;;;;;;;;15.60;39.30;;;;;;5045111;28;43914;-79
2022/03/09 03:47:23;;;;;;;;;;;15.60;38.70;;;;;;5045217;28;42935;-77
2022/03/09 03:49:48;;;;;;;;;;;15.60;39.30;;;;;;5044731;28;42898;-78
2022/03/09 03:52:14;;;;;;;;;;;15.60;39.30;;;;;;5045044;28;42924;-78
2022/03/09 03:54:39;;;;;;;;;;;15.60;39.40;;;;;;5045163;28;42962;-78
2022/03/09 03:57:05;;;;;;;;;;;15.40;39.30;;;;;;5044184;28;42898;-77
2022/03/09 03:59:31;;;;;;;;;;;15.60;39.30;;;;;;5044129;28;42983;-77
2022/03/09 04:01:56;;;;;;;;;;;15.60;39.30;;;;;;5044455;28;42919;-78
2022/03/09 04:04:22;;;;;;;;;;;15.60;39.30;;;;;;5044304;28;43823;-77
2022/03/09 04:06:47;;;;;;;;;;;15.60;38.80;;;;;;5044911;28;42978;-75
2022/03/09 04:09:13;;;;;;;;;;;15.60;39.40;;;;;;5044020;28;42825;-78
2022/03/09 04:11:38;;;;;;;;;;;15.60;39.30;;;;;;5044931;28;42784;-77
2022/03/09 04:14:04;;;;;;;;;;;15.60;39.30;;;;;;5043881;28;43718;-77
2022/03/09 04:16:29;;;;;;;;;;;15.60;39.90;;;;;;5042648;28;43177;-77
2022/03/09 04:18:55;;;;;;;;;;;15.00;39.10;;;;;;5043646;28;43012;-77
2022/03/09 04:21:21;;;;;;;;;;;15.60;39.40;;;;;;5043512;28;43129;-77
2022/03/09 04:23:46;;;;;;;;;;;15.60;39.30;;;;;;5042757;28;43111;-76
2022/03/09 04:26:12;;;;;;;;;;;15.60;39.40;;;;;;5043233;28;42923;-77
2022/03/09 04:28:37;;;;;;;;;;;15.60;39.40;;;;;;5044418;28;43666;-76
2022/03/09 04:31:03;;;;;;;;;;;15.60;39.50;;;;;;5043760;28;43041;-77
2022/03/09 04:33:29;;;;;;;;;;;15.60;39.50;;;;;;5042231;28;42942;-77
2022/03/09 04:35:54;;;;;;;;;;;15.60;39.40;;;;;;5043180;28;43122;-77
2022/03/09 04:38:20;;;;;;;;;;;15.60;39.50;;;;;;5042716;28;43443;-77
2022/03/09 04:40:45;;;;;;;;;;;15.60;39.40;;;;;;5044082;28;42961;-77
2022/03/09 04:43:11;;;;;;;;;;;15.60;39.50;;;;;;5043302;28;44222;-77
2022/03/09 04:45:36;;;;;;;;;;;15.60;39.50;;;;;;5045131;28;42903;-76
2022/03/09 04:48:02;;;;;;;;;;;15.60;39.40;;;;;;5044869;28;42977;-77
2022/03/09 04:50:27;;;;;;;;;;;15.50;39.40;;;;;;5044636;28;42950;-77
2022/03/09 04:52:53;;;;;;;;;;;15.60;39.50;;;;;;5043842;28;42993;-77
2022/03/09 04:55:18;;;;;;;;;;;15.60;39.40;;;;;;5044345;28;43045;-77
2022/03/09 04:57:44;;;;;;;;;;;15.60;39.60;;;;;;5043927;28;43487;-77
2022/03/09 05:00:10;;;;;;;;;;;15.60;38.90;;;;;;5043327;28;43014;-77
2022/03/09 05:02:36;;;;;;;;;;;15.60;39.50;;;;;;5021580;28;45026;-77
2022/03/09 05:05:02;;;;;;;;;;;15.60;39.40;;;;;;5025597;28;42967;-78
2022/03/09 05:07:27;;;;;;;;;;;15.50;38.90;;;;;;5043220;28;43708;-77
2022/03/09 05:09:53;;;;;;;;;;;15.60;39.50;;;;;;5044204;28;42907;-78
2022/03/09 05:12:18;;;;;;;;;;;15.60;39.50;;;;;;5044047;28;42982;-78
2022/03/09 05:14:44;;;;;;;;;;;15.60;39.50;;;;;;5043269;28;43014;-78
2022/03/09 05:17:09;;;;;;;;;;;15.60;39.50;;;;;;5042734;28;42998;-78
2022/03/09 05:19:35;;;;;;;;;;;15.60;39.60;;;;;;5039745;28;42812;-78
2022/03/09 05:22:00;;;;;;;;;;;15.50;39.60;;;;;;5033208;28;43035;-77
2022/03/09 05:24:26;;;;;;;;;;;15.60;39.00;;;;;;5038637;28;43510;-77
2022/03/09 05:26:51;;;;;;;;;;;15.60;39.60;;;;;;5041838;28;43249;-77
2022/03/09 05:29:17;;;;;;;;;;;15.60;39.50;;;;;;5042489;28;42944;-77
2022/03/09 05:31:45;;;;;;;;;;;15.60;39.60;;;;;;5041153;28;43108;-78
2022/03/09 05:34:11;;;;;;;;;;;15.60;39.60;;;;;;5042880;28;43106;-78
2022/03/09 05:36:37;;;;;;;;;;;15.60;39.50;;;;;;5043856;28;43496;-78
2022/03/09 05:39:02;;;;;;;;;;;15.60;38.00;;;;;;5041254;28;42859;-77
2022/03/09 05:41:28;;;;;;;;;;;15.60;39.60;;;;;;5042148;28;43723;-76
2022/03/09 05:43:54;;;;;;;;;;;15.60;39.60;;;;;;5041406;28;43221;-77
2022/03/09 05:46:20;;;;;;;;;;;15.60;39.00;;;;;;5042617;28;42984;-75
2022/03/09 05:48:45;;;;;;;;;;;15.60;39.70;;;;;;5043488;28;43007;-75
2022/03/09 05:51:11;;;;;;;;;;;15.60;39.00;;;;;;5046840;28;43912;-79
2022/03/09 05:53:36;;;;;;;;;;;15.60;39.40;;;;;;5047374;28;42919;-78
2022/03/09 05:56:02;;;;;;;;;;;15.00;34.30;;;;;;5046922;28;43500;-77
2022/03/09 05:58:27;;;;;;;;;;;14.20;32.70;;;;;;5043787;28;43643;-77
2022/03/09 06:00:53;;;;;;;;;;;14.10;32.90;;;;;;5039526;28;43897;-75
2022/03/09 06:03:18;;;;;;;;;;;14.50;33.20;;;;;;5046693;28;43194;-80
2022/03/09 06:05:44;;;;;;;;;;;14.70;33.90;;;;;;5045185;28;43297;-79
2022/03/09 06:08:10;;;;;;;;;;;14.90;34.00;;;;;;5046007;28;43083;-76
2022/03/09 06:10:35;;;;;;;;;;;15.10;34.20;;;;;;5045046;28;43600;-78
2022/03/09 06:13:01;;;;;;;;;;;16.20;34.70;;;;;;5046688;28;42953;-79
2022/03/09 06:15:27;;;;;;;;;;;15.30;33.40;;;;;;5045967;28;42919;-78
2022/03/09 06:17:52;;;;;;;;;;;15.30;33.90;;;;;;5046152;28;43023;-78
2022/03/09 06:20:19;;;;;;;;;;;15.30;33.90;;;;;;5045738;28;42954;-77
2022/03/09 06:22:46;;;;;;;;;;;15.40;34.30;;;;;;5044533;28;42963;-77
2022/03/09 06:25:14;;;;;;;;;;;15.40;34.10;;;;;;5043552;28;44512;-77
2022/03/09 06:27:41;;;;;;;;;;;15.40;34.00;;;;;;5046491;28;42931;-76
2022/03/09 06:30:07;;;;;;;;;;;15.40;33.80;;;;;;5046686;28;42907;-77
2022/03/09 06:32:32;;;;;;;;;;;15.40;33.70;;;;;;5047298;28;42946;-77
2022/03/09 06:34:58;;;;;;;;;;;15.40;33.70;;;;;;5047178;28;43397;-77
2022/03/09 06:37:23;;;;;;;;;;;15.40;33.50;;;;;;5047412;28;43025;-77
2022/03/09 06:39:49;;;;;;;;;;;15.40;33.60;;;;;;5046900;28;42878;-76
2022/03/09 06:42:14;;;;;;;;;;;15.40;33.50;;;;;;5046852;28;42799;-76
2022/03/09 06:44:40;;;;;;;;;;;15.30;33.60;;;;;;5047001;28;42763;-76
2022/03/09 06:47:05;;;;;;;;;;;15.40;33.10;;;;;;5047230;28;42997;-77
2022/03/09 06:49:31;;;;;;;;;;;15.40;33.70;;;;;;5046944;28;43427;-77
2022/03/09 06:51:56;;;;;;;;;;;15.50;33.60;;;;;;5046841;28;42963;-77
2022/03/09 06:54:22;;;;;;;;;;;15.40;33.40;;;;;;5046336;28;43477;-77
2022/03/09 06:56:51;;;;;;;;;;;15.40;33.40;;;;;;5046225;28;42921;-77
2022/03/09 06:59:17;;;;;;;;;;;15.40;33.40;;;;;;5046074;28;42930;-77
2022/03/09 07:01:42;;;;;;;;;;;15.50;33.40;;;;;;5046885;28;42860;-77
2022/03/09 07:04:08;;;;;;;;;;;15.50;33.40;;;;;;5046277;28;43078;-77
2022/03/09 07:06:33;;;;;;;;;;;15.50;33.40;;;;;;5046398;28;42888;-76
2022/03/09 07:08:59;;;;;;;;;;;15.50;33.30;;;;;;5045773;28;43459;-77
2022/03/09 07:11:24;;;;;;;;;;;15.50;33.50;;;;;;5046631;28;42835;-78
2022/03/09 07:13:51;;;;;;;;;;;15.50;33.40;;;;;;5045567;28;42959;-78
2022/03/09 07:16:16;;;;;;;;;;;15.50;32.70;;;;;;5046494;28;43008;-78
2022/03/09 07:18:42;;;;;;;;;;;15.50;33.30;;;;;;5046285;28;43580;-78
2022/03/09 07:21:07;;;;;;;;;;;15.50;33.30;;;;;;5046029;28;42951;-78
2022/03/09 07:23:33;;;;;;;;;;;15.50;33.30;;;;;;5046064;28;42937;-77
2022/03/09 07:25:58;;;;;;;;;;;15.60;33.30;;;;;;5046449;28;43043;-78
2022/03/09 07:28:24;;;;;;;;;;;15.60;33.30;;;;;;5046302;28;43872;-77
2022/03/09 07:30:49;;;;;;;;;;;15.60;32.80;;;;;;5045700;28;43153;-77
2022/03/09 07:33:15;;;;;;;;;;;15.60;33.30;;;;;;5046078;28;43712;-78
2022/03/09 07:35:41;;;;;;;;;;;15.60;33.30;;;;;;5045462;28;43102;-78
2022/03/09 07:38:07;;;;;;;;;;;15.60;33.20;;;;;;5045381;28;43418;-78
2022/03/09 07:40:33;;;;;;;;;;;15.60;33.40;;;;;;5045585;28;42989;-77
2022/03/09 07:42:58;;;;;;;;;;;15.60;33.30;;;;;;5046041;28;43236;-77
2022/03/09 07:45:24;;;;;;;;;;;15.60;33.10;;;;;;5046047;28;42896;-77
2022/03/09 07:47:49;;;;;;;;;;;15.60;33.20;;;;;;5046574;28;42850;-77
2022/03/09 07:50:15;;;;;;;;;;;15.70;33.40;;;;;;5045903;28;42963;-77
2022/03/09 07:52:41;;;;;;;;;;;15.60;33.40;;;;;;5045483;28;44575;-76
2022/03/09 07:55:07;;;;;;;;;;;15.70;33.20;;;;;;5046116;28;42880;-77
2022/03/09 07:57:33;;;;;;;;;;;15.60;33.10;;;;;;5045364;28;43478;-77
2022/03/09 08:00:00;;;;;;;;;;;15.70;33.30;;;;;;5044959;28;61065;-78
2022/03/09 08:02:26;;;;;;;;;;;15.70;33.40;;;;;;5045802;28;43612;-78
2022/03/09 08:04:51;;;;;;;;;;;15.70;32.80;;;;;;5046106;28;42970;-78
2022/03/09 08:07:17;;;;;;;;;;;15.70;32.80;;;;;;5045459;28;43893;-77
2022/03/09 08:09:43;;;;;;;;;;;15.70;32.90;;;;;;5045506;28;43027;-77
2022/03/09 08:12:11;;;;;;;;;;;15.70;32.90;;;;;;5045452;28;42967;-76
2022/03/09 08:14:37;;;;;;;;;;;15.80;34.00;;;;;;5045782;28;42875;-76
2022/03/09 08:17:03;;;;;;;;;;;15.80;34.60;;;;;;5045431;28;43458;-76
2022/03/09 08:19:28;;;;;;;;;;;15.70;33.10;;;;;;5045399;28;42964;-77
2022/03/09 08:21:54;;;;;;;;;;;16.00;34.80;;;;;;5045671;28;43819;-76
2022/03/09 08:24:20;;;;;;;;;;;15.70;33.00;;;;;;5045924;28;42942;-79
2022/03/09 08:26:46;;;;;;;;;;;15.50;32.80;;;;;;5045425;28;42985;-78
2022/03/09 08:29:12;;;;;;;;;;;15.60;32.80;;;;;;5045026;28;43224;-78
2022/03/09 08:31:38;;;;;;;;;;;15.90;33.00;;;;;;5045625;28;42934;-78
2022/03/09 08:34:03;;;;;;;;;;;15.80;33.00;;;;;;5043934;28;42900;-77
2022/03/09 08:36:29;;;;;;;;;;;15.80;32.90;;;;;;5045385;28;43417;-77
2022/03/09 08:38:55;;;;;;;;;;;15.70;32.80;;;;;;5045150;28;43133;-77
2022/03/09 08:41:24;;;;;;;;;;;15.80;33.50;;;;;;5045355;28;42886;-77
2022/03/09 08:43:50;;;;;;;;;;;15.80;33.50;;;;;;5043860;28;42964;-78
2022/03/09 08:46:16;;;;;;;;;;;15.70;33.00;;;;;;5045434;28;43026;-78
2022/03/09 08:48:42;;;;;;;;;;;15.70;32.90;;;;;;5045941;28;43001;-78
2022/03/09 08:51:07;;;;;;;;;;;15.80;33.00;;;;;;5045099;28;43721;-78
2022/03/09 08:53:33;;;;;;;;;;;15.80;33.60;;;;;;5044896;28;42989;-78
2022/03/09 08:55:59;;;;;;;;;;;15.70;32.50;;;;;;5044600;28;42980;-78
2022/03/09 08:58:25;;;;;;;;;;;15.70;32.40;;;;;;5044286;28;43014;-78
2022/03/09 09:00:50;;;;;;;;;;;15.70;32.50;;;;;;5044453;28;43026;-77
2022/03/09 09:03:16;;;;;;;;;;;15.80;32.20;;;;;;5043328;28;42948;-78
2022/03/09 09:05:41;;;;;;;;;;;15.70;32.10;;;;;;5045023;28;42762;-77
2022/03/09 09:08:07;;;;;;;;;;;16.00;33.70;;;;;;5045302;28;42777;-78
2022/03/09 09:10:34;;;;;;;;;;;15.80;31.80;;;;;;5043497;28;45475;-78
2022/03/09 09:12:59;;;;;;;;;;;15.70;32.00;;;;;;5045211;28;42875;-78
2022/03/09 09:15:25;;;;;;;;;;;15.70;31.70;;;;;;5045063;28;42937;-78
2022/03/09 09:17:58;;;;;;;;;;;15.70;31.60;;;;;;5045466;28;42948;-78
2022/03/09 09:20:25;;;;;;;;;;;15.70;31.70;;;;;;5045171;28;43096;-76
2022/03/09 09:22:55;;;;;;;;;;;15.60;31.60;;;;;;5045089;28;42925;-77
2022/03/09 09:25:20;;;;;;;;;;;15.70;32.00;;;;;;5048507;28;42883;-77
2022/03/09 09:27:46;;;;;;;;;;;15.70;31.70;;;;;;5048683;28;42979;-77
2022/03/09 09:30:12;;;;;;;;;;;15.60;31.50;;;;;;5048554;28;43740;-77
2022/03/09 09:32:37;;;;;;;;;;;15.60;31.50;;;;;;5048219;28;43003;-77
2022/03/09 09:35:03;;;;;;;;;;;15.60;31.70;;;;;;5048223;28;43497;-77
2022/03/09 09:37:29;;;;;;;;;;;15.70;31.70;;;;;;5048415;28;43014;-77
2022/03/09 09:39:54;;;;;;;;;;;15.70;31.50;;;;;;5048189;28;43011;-77
2022/03/09 09:42:28;;;;;;;;;;;15.60;31.50;;;;;;5046542;28;43105;-77
2022/03/09 09:44:54;;;;;;;;;;;15.60;31.40;;;;;;5047986;28;42904;-77
2022/03/09 09:47:20;;;;;;;;;;;15.70;31.60;;;;;;5048437;28;43145;-77
2022/03/09 09:49:48;;;;;;;;;;;15.90;33.50;;;;;;5046500;28;44642;-77
2022/03/09 09:52:15;;;;;;;;;;;15.60;31.50;;;;;;5047823;28;43026;-76
2022/03/09 09:54:40;;;;;;;;;;;15.70;31.60;;;;;;5047774;28;43362;-77
2022/03/09 09:57:06;;;;;;;;;;;15.60;31.60;;;;;;5047831;28;42907;-77
2022/03/09 09:59:32;;;;;;;;;;;15.60;31.60;;;;;;5046734;28;43556;-77
2022/03/09 10:01:58;;;;;;;;;;;15.60;31.90;;;;;;5047655;28;43040;-77
2022/03/09 10:04:24;;;;;;;;;;;15.60;31.30;;;;;;5045957;28;45358;-77
2022/03/09 10:06:50;;;;;;;;;;;15.60;31.50;;;;;;5047362;28;42953;-77
2022/03/09 10:09:15;;;;;;;;;;;15.50;31.30;;;;;;5047790;28;43520;-77
2022/03/09 10:11:44;;;;;;;;;;;15.60;31.40;;;;;;5047717;28;42923;-77
2022/03/09 10:14:09;;;;;;;;;;;15.60;31.90;;;;;;5047928;28;43658;-77
2022/03/09 10:16:35;;;;;;;;;;;15.60;31.50;;;;;;5048066;28;42903;-77
2022/03/09 10:19:01;;;;;;;;;;;15.60;31.40;;;;;;5047252;28;42847;-77
2022/03/09 10:21:28;;;;;;;;;;;15.60;31.10;;;;;;5047724;28;42983;-77
2022/03/09 10:23:56;;;;;;;;;;;15.60;31.00;;;;;;5047739;28;43159;-77
2022/03/09 10:26:28;;;;;;;;;;;15.50;31.00;;;;;;5047814;28;43017;-77
2022/03/09 10:28:55;;;;;;;;;;;15.60;31.60;;;;;;5046989;28;43330;-77
2022/03/09 10:31:30;;;;;;;;;;;15.60;31.10;;;;;;5047990;28;43176;-76
2022/03/09 10:34:06;;;;;;;;;;;15.60;30.90;;;;;;5047017;28;43369;-77
2022/03/09 10:36:31;;;;;;;;;;;15.60;30.90;;;;;;5045967;28;43050;-77
2022/03/09 10:39:10;;;;;;;;;;;15.60;31.50;;;;;;5047828;28;42946;-76
2022/03/09 10:41:35;;;;;;;;;;;15.50;30.50;;;;;;5047628;28;42987;-76
2022/03/09 10:44:01;;;;;;;;;;;15.50;30.80;;;;;;5047307;28;42987;-77
2022/03/09 10:46:26;;;;;;;;;;;15.40;30.20;;;;;;5047059;28;42891;-76
2022/03/09 10:48:52;;;;;;;;;;;15.50;31.00;;;;;;5047279;28;42913;-77
2022/03/09 10:51:25;;;;;;;;;;;15.50;31.10;;;;;;5047414;28;42756;-77
2022/03/09 10:53:51;;;;;;;;;;;15.80;31.00;;;;;;5046462;28;43605;-77
2022/03/09 10:56:20;;;;;;;;;;;15.50;30.40;;;;;;5046646;28;42876;-77
2022/03/09 10:58:45;;;;;;;;;;;15.50;30.40;;;;;;5046461;28;43486;-77
2022/03/09 11:01:15;;;;;;;;;;;15.40;30.60;;;;;;5046729;28;42914;-78
2022/03/09 11:03:43;;;;;;;;;;;15.60;30.60;;;;;;5046035;28;43550;-76
2022/03/09 11:06:09;;;;;;;;;;;15.50;30.70;;;;;;5046346;28;42753;-78
2022/03/09 11:08:36;;;;;;;;;;;15.60;30.60;;;;;;5045714;28;42986;-77
2022/03/09 11:11:02;;;;;;;;;;;15.60;30.80;;;;;;5046193;28;42896;-76
2022/03/09 11:13:28;;;;;;;;;;;15.50;31.00;;;;;;5044704;28;44650;-77
2022/03/09 11:15:54;;;;;;;;;;;15.50;31.30;;;;;;5046462;28;43146;-78
2022/03/09 11:18:20;;;;;;;;;;;15.70;32.20;;;;;;5046139;28;43629;-77
2022/03/09 11:20:47;;;;;;;;;;;15.70;31.70;;;;;;5046008;28;42784;-78
2022/03/09 11:23:13;;;;;;;;;;;15.50;30.60;;;;;;5046143;28;43834;-75
2022/03/09 11:25:42;;;;;;;;;;;15.60;31.30;;;;;;5046158;28;42791;-77
2022/03/09 11:28:08;;;;;;;;;;;15.60;30.80;;;;;;5045743;28;42915;-77
2022/03/09 11:30:34;;;;;;;;;;;15.90;32.50;;;;;;5045751;28;42765;-78
2022/03/09 11:33:00;;;;;;;;;;;15.60;30.90;;;;;;5044658;28;44721;-77
2022/03/09 11:35:34;;;;;;;;;;;15.60;31.00;;;;;;5046365;28;42932;-78
2022/03/09 11:38:00;;;;;;;;;;;15.60;31.20;;;;;;5045258;28;43430;-78
2022/03/09 11:40:25;;;;;;;;;;;15.60;30.70;;;;;;5046003;28;42960;-78
2022/03/09 11:42:51;;;;;;;;;;;15.50;30.60;;;;;;5046392;28;42920;-78
2022/03/09 11:45:17;;;;;;;;;;;15.60;31.50;;;;;;5045331;28;43054;-78
2022/03/09 11:47:54;;;;;;;;;;;15.70;30.90;;;;;;5044245;28;43071;-78
2022/03/09 11:50:20;;;;;;;;;;;15.60;31.40;;;;;;5045348;28;42955;-77
2022/03/09 11:53:03;;;;;;;;;;;15.70;32.60;;;;;;5045375;28;42966;-77
2022/03/09 11:55:29;;;;;;;;;;;15.60;30.80;;;;;;5045556;28;42994;-77
2022/03/09 11:57:54;;;;;;;;;;;15.60;31.50;;;;;;5045545;28;43003;-78
2022/03/09 12:00:20;;;;;;;;;;;15.60;31.80;;;;;;5045390;28;43324;-77
2022/03/09 12:02:55;;;;;;;;;;;15.60;30.80;;;;;;5045475;28;44030;-77
2022/03/09 12:05:34;;;;;;;;;;;15.60;30.80;;;;;;5045876;28;42925;-77
2022/03/09 12:08:00;;;;;;;;;;;15.90;31.40;;;;;;5045453;28;42956;-77
2022/03/09 12:10:44;;;;;;;;;;;15.70;31.80;;;;;;5044964;28;42951;-77
2022/03/09 12:13:14;;;;;;;;;;;15.70;31.10;;;;;;5044988;28;44110;-77
2022/03/09 12:15:58;;;;;;;;;;;15.70;30.70;;;;;;5045168;28;42901;-76
2022/03/09 12:18:38;;;;;;;;;;;15.40;31.20;;;;;;5045045;28;43971;-78
2022/03/09 12:21:05;;;;;;;;;;;15.60;30.90;;;;;;5045489;28;43102;-78
2022/03/09 12:23:31;;;;;;;;;;;15.70;31.90;;;;;;5043563;28;44677;-75
2022/03/09 12:25:58;;;;;;;;;;;15.80;32.40;;;;;;5045740;28;42776;-77
2022/03/09 12:28:29;;;;;;;;;;;16.00;33.00;;;;;;5045160;28;43627;-76
2022/03/09 12:30:59;;;;;;;;;;;15.60;31.40;;;;;;5045094;28;42808;-78
2022/03/09 12:33:28;;;;;;;;;;;15.70;31.40;;;;;;5045267;28;42911;-76
2022/03/09 12:36:14;;;;;;;;;;;15.70;31.90;;;;;;5045345;28;42957;-77
2022/03/09 12:38:41;;;;;;;;;;;15.80;32.20;;;;;;5044339;28;43671;-76
2022/03/09 12:41:22;;;;;;;;;;;15.70;31.50;;;;;;5045352;28;42763;-76
2022/03/09 12:43:49;;;;;;;;;;;15.90;32.10;;;;;;5044508;28;42945;-76
2022/03/09 12:46:15;;;;;;;;;;;15.60;31.30;;;;;;5044913;28;42860;-76
2022/03/09 12:48:41;;;;;;;;;;;15.60;31.20;;;;;;5044333;28;43596;-76
2022/03/09 12:51:06;;;;;;;;;;;15.70;31.10;;;;;;5044617;28;42987;-76
2022/03/09 12:53:32;;;;;;;;;;;15.60;31.10;;;;;;5044474;28;43042;-77
2022/03/09 12:56:11;;;;;;;;;;;15.80;32.00;;;;;;5045040;28;42864;-77
2022/03/09 12:58:37;;;;;;;;;;;15.70;31.60;;;;;;5049095;28;43064;-77
2022/03/09 13:01:03;;;;;;;;;;;15.70;31.30;;;;;;5051107;28;43009;-77
2022/03/09 13:03:29;;;;;;;;;;;15.70;31.30;;;;;;5050503;28;43042;-77
2022/03/09 13:05:55;;;;;;;;;;;15.80;32.90;;;;;;5050620;28;42986;-76
2022/03/09 13:08:21;;;;;;;;;;;13.30;30.00;;;;;;5048984;28;44717;-77
2022/03/09 13:10:49;;;;;;;;;;;15.80;32.80;;;;;;5050983;28;42891;-77
2022/03/09 13:13:15;;;;;;;;;;;15.90;32.00;;;;;;5050691;28;43039;-77
2022/03/09 13:15:42;;;;;;;;;;;15.70;31.60;;;;;;5050827;28;42919;-76
2022/03/09 13:18:08;;;;;;;;;;;15.70;31.10;;;;;;5049986;28;43793;-76
2022/03/09 13:20:34;;;;;;;;;;;15.70;31.20;;;;;;5050575;28;43185;-76
2022/03/09 13:23:00;;;;;;;;;;;15.70;31.40;;;;;;5050389;28;43025;-76
2022/03/09 13:25:32;;;;;;;;;;;15.70;31.10;;;;;;5050843;28;42888;-76
2022/03/09 13:28:02;;;;;;;;;;;15.80;31.60;;;;;;5050742;28;43341;-77
2022/03/09 13:30:28;;;;;;;;;;;15.70;31.10;;;;;;5050749;28;42926;-76
2022/03/09 13:32:54;;;;;;;;;;;15.60;30.90;;;;;;5050532;28;43000;-77
2022/03/09 13:35:21;;;;;;;;;;;15.70;31.70;;;;;;5050713;28;43016;-76
2022/03/09 13:37:47;;;;;;;;;;;15.80;31.80;;;;;;5050386;28;43844;-77
2022/03/09 13:40:13;;;;;;;;;;;15.70;31.10;;;;;;5049949;28;42949;-77
2022/03/09 13:42:43;;;;;;;;;;;15.70;31.20;;;;;;5050131;28;43221;-76
2022/03/09 13:45:15;;;;;;;;;;;15.70;31.80;;;;;;5050236;28;42939;-77
2022/03/09 13:47:44;;;;;;;;;;;15.80;31.90;;;;;;5050923;28;43563;-77
2022/03/09 13:50:15;;;;;;;;;;;15.80;31.80;;;;;;5050811;28;42956;-77
2022/03/09 13:52:41;;;;;;;;;;;15.80;31.40;;;;;;5051103;28;43398;-76
2022/03/09 13:55:07;;;;;;;;;;;15.70;32.70;;;;;;5049055;28;42999;-77
2022/03/09 13:57:34;;;;;;;;;;;15.80;32.60;;;;;;5050245;28;43376;-77
2022/03/09 14:00:00;;;;;;;;;;;15.70;31.60;;;;;;5050287;28;43473;-78
2022/03/09 14:02:26;;;;;;;;;;;15.70;31.10;;;;;;5050945;28;44217;-78
2022/03/09 14:04:52;;;;;;;;;;;15.70;31.60;;;;;;5050722;28;43086;-77
2022/03/09 14:07:20;;;;;;;;;;;15.70;31.00;;;;;;5050667;28;42867;-77
2022/03/09 14:10:05;;;;;;;;;;;15.70;31.10;;;;;;5048167;28;43005;-77
2022/03/09 14:12:36;;;;;;;;;;;15.70;31.50;;;;;;5047368;28;43791;-77